<?xml version="1.0" encoding="UTF-8" standalone="no" ?>
<gpx xmlns="http://www.topografix.com/GPX/1/1" xmlns:xsi="http://www.w3.org/2001/XMLSchema-instance" xsi:schemaLocation="http://www.topografix.com/GPX/1/1 http://www.topografix.com/GPX/1/1/gpx.xsd" version="1.1" creator="VisuGPX - https://www.visugpx.com">
  <metadata>
    <name>Vacances 2021</name>
  </metadata>
  <trk>
    <name><![CDATA[Journal actif: 2021-07-23 14:39]]></name>
    <trkseg>
      <trkpt lat="49.20999" lon="5.47123">
        <ele>258.73</ele>
        <time>2021-07-23T16:39:51Z</time>
      </trkpt>
      <trkpt lat="49.21006" lon="5.4712">
        <ele>258.73</ele>
        <time>2021-07-23T16:39:53Z</time>
      </trkpt>
      <trkpt lat="49.21022" lon="5.47101">
        <ele>260.65</ele>
        <time>2021-07-23T16:40:04Z</time>
      </trkpt>
      <trkpt lat="49.21022" lon="5.47101">
        <ele>260.65</ele>
        <time>2021-07-23T16:40:05Z</time>
      </trkpt>
      <trkpt lat="49.21023" lon="5.47088">
        <ele>261.14</ele>
        <time>2021-07-23T16:40:09Z</time>
      </trkpt>
      <trkpt lat="49.21003" lon="5.47068">
        <ele>260.65</ele>
        <time>2021-07-23T16:40:20Z</time>
      </trkpt>
      <trkpt lat="49.20987" lon="5.47066">
        <ele>258.73</ele>
        <time>2021-07-23T16:40:36Z</time>
      </trkpt>
      <trkpt lat="49.20987" lon="5.47066">
        <ele>258.73</ele>
        <time>2021-07-23T16:40:50Z</time>
      </trkpt>
      <trkpt lat="49.20958" lon="5.47066">
        <ele>257.29</ele>
        <time>2021-07-23T16:41:01Z</time>
      </trkpt>
      <trkpt lat="49.20867" lon="5.47068">
        <ele>253.44</ele>
        <time>2021-07-23T16:41:17Z</time>
      </trkpt>
      <trkpt lat="49.20752" lon="5.4707">
        <ele>252.48</ele>
        <time>2021-07-23T16:41:34Z</time>
      </trkpt>
      <trkpt lat="49.20738" lon="5.4707">
        <ele>252.96</ele>
        <time>2021-07-23T16:41:40Z</time>
      </trkpt>
      <trkpt lat="49.20719" lon="5.4707">
        <ele>253.93</ele>
        <time>2021-07-23T16:41:59Z</time>
      </trkpt>
      <trkpt lat="49.20662" lon="5.47072">
        <ele>253.93</ele>
        <time>2021-07-23T16:42:09Z</time>
      </trkpt>
      <trkpt lat="49.20629" lon="5.47068">
        <ele>256.33</ele>
        <time>2021-07-23T16:42:13Z</time>
      </trkpt>
      <trkpt lat="49.20629" lon="5.47068">
        <ele>256.81</ele>
        <time>2021-07-23T16:42:14Z</time>
      </trkpt>
      <trkpt lat="49.20618" lon="5.47063">
        <ele>257.77</ele>
        <time>2021-07-23T16:42:15Z</time>
      </trkpt>
      <trkpt lat="49.20614" lon="5.4706">
        <ele>258.25</ele>
        <time>2021-07-23T16:42:16Z</time>
      </trkpt>
      <trkpt lat="49.20614" lon="5.4706">
        <ele>258.73</ele>
        <time>2021-07-23T16:42:17Z</time>
      </trkpt>
      <trkpt lat="49.20611" lon="5.47056">
        <ele>259.21</ele>
        <time>2021-07-23T16:42:18Z</time>
      </trkpt>
      <trkpt lat="49.20601" lon="5.47044">
        <ele>261.62</ele>
        <time>2021-07-23T16:42:23Z</time>
      </trkpt>
      <trkpt lat="49.20598" lon="5.47039">
        <ele>262.1</ele>
        <time>2021-07-23T16:42:24Z</time>
      </trkpt>
      <trkpt lat="49.20595" lon="5.47034">
        <ele>262.58</ele>
        <time>2021-07-23T16:42:25Z</time>
      </trkpt>
      <trkpt lat="49.20592" lon="5.47027">
        <ele>263.06</ele>
        <time>2021-07-23T16:42:26Z</time>
      </trkpt>
      <trkpt lat="49.20589" lon="5.47021">
        <ele>263.54</ele>
        <time>2021-07-23T16:42:27Z</time>
      </trkpt>
      <trkpt lat="49.20586" lon="5.47014">
        <ele>264.02</ele>
        <time>2021-07-23T16:42:28Z</time>
      </trkpt>
      <trkpt lat="49.20583" lon="5.47007">
        <ele>264.5</ele>
        <time>2021-07-23T16:42:29Z</time>
      </trkpt>
      <trkpt lat="49.20579" lon="5.47">
        <ele>264.98</ele>
        <time>2021-07-23T16:42:30Z</time>
      </trkpt>
      <trkpt lat="49.20577" lon="5.46995">
        <ele>265.46</ele>
        <time>2021-07-23T16:42:31Z</time>
      </trkpt>
      <trkpt lat="49.20575" lon="5.4699">
        <ele>265.94</ele>
        <time>2021-07-23T16:42:32Z</time>
      </trkpt>
      <trkpt lat="49.20573" lon="5.46987">
        <ele>266.42</ele>
        <time>2021-07-23T16:42:42Z</time>
      </trkpt>
      <trkpt lat="49.20573" lon="5.46986">
        <ele>266.9</ele>
        <time>2021-07-23T16:42:43Z</time>
      </trkpt>
      <trkpt lat="49.20572" lon="5.46989">
        <ele>266.42</ele>
        <time>2021-07-23T16:42:44Z</time>
      </trkpt>
      <trkpt lat="49.20572" lon="5.46995">
        <ele>266.42</ele>
        <time>2021-07-23T16:42:45Z</time>
      </trkpt>
      <trkpt lat="49.20571" lon="5.47002">
        <ele>266.42</ele>
        <time>2021-07-23T16:42:46Z</time>
      </trkpt>
      <trkpt lat="49.20557" lon="5.4711">
        <ele>264.98</ele>
        <time>2021-07-23T16:42:58Z</time>
      </trkpt>
      <trkpt lat="49.20543" lon="5.47215">
        <ele>264.02</ele>
        <time>2021-07-23T16:43:08Z</time>
      </trkpt>
      <trkpt lat="49.20526" lon="5.47361">
        <ele>262.1</ele>
        <time>2021-07-23T16:43:17Z</time>
      </trkpt>
      <trkpt lat="49.20526" lon="5.47378">
        <ele>261.14</ele>
        <time>2021-07-23T16:43:18Z</time>
      </trkpt>
      <trkpt lat="49.20526" lon="5.47392">
        <ele>260.65</ele>
        <time>2021-07-23T16:43:19Z</time>
      </trkpt>
      <trkpt lat="49.20528" lon="5.47406">
        <ele>260.65</ele>
        <time>2021-07-23T16:43:20Z</time>
      </trkpt>
      <trkpt lat="49.2053" lon="5.47425">
        <ele>260.65</ele>
        <time>2021-07-23T16:43:21Z</time>
      </trkpt>
      <trkpt lat="49.20534" lon="5.47444">
        <ele>260.17</ele>
        <time>2021-07-23T16:43:22Z</time>
      </trkpt>
      <trkpt lat="49.20592" lon="5.47723">
        <ele>255.85</ele>
        <time>2021-07-23T16:43:35Z</time>
      </trkpt>
      <trkpt lat="49.20654" lon="5.47856">
        <ele>251.52</ele>
        <time>2021-07-23T16:43:43Z</time>
      </trkpt>
      <trkpt lat="49.20736" lon="5.47975">
        <ele>246.72</ele>
        <time>2021-07-23T16:43:52Z</time>
      </trkpt>
      <trkpt lat="49.20762" lon="5.48023">
        <ele>244.79</ele>
        <time>2021-07-23T16:43:56Z</time>
      </trkpt>
      <trkpt lat="49.20767" lon="5.48039">
        <ele>245.27</ele>
        <time>2021-07-23T16:43:57Z</time>
      </trkpt>
      <trkpt lat="49.20773" lon="5.48055">
        <ele>244.79</ele>
        <time>2021-07-23T16:43:58Z</time>
      </trkpt>
      <trkpt lat="49.20778" lon="5.48073">
        <ele>245.27</ele>
        <time>2021-07-23T16:43:59Z</time>
      </trkpt>
      <trkpt lat="49.20782" lon="5.48091">
        <ele>245.27</ele>
        <time>2021-07-23T16:44:00Z</time>
      </trkpt>
      <trkpt lat="49.20824" lon="5.48306">
        <ele>245.75</ele>
        <time>2021-07-23T16:44:10Z</time>
      </trkpt>
      <trkpt lat="49.20832" lon="5.48324">
        <ele>246.23</ele>
        <time>2021-07-23T16:44:11Z</time>
      </trkpt>
      <trkpt lat="49.20928" lon="5.48527">
        <ele>244.79</ele>
        <time>2021-07-23T16:44:23Z</time>
      </trkpt>
      <trkpt lat="49.2095" lon="5.4857">
        <ele>243.83</ele>
        <time>2021-07-23T16:44:28Z</time>
      </trkpt>
      <trkpt lat="49.20953" lon="5.48576">
        <ele>243.83</ele>
        <time>2021-07-23T16:44:29Z</time>
      </trkpt>
      <trkpt lat="49.20956" lon="5.48581">
        <ele>243.83</ele>
        <time>2021-07-23T16:44:30Z</time>
      </trkpt>
      <trkpt lat="49.20961" lon="5.48573">
        <ele>243.83</ele>
        <time>2021-07-23T16:44:31Z</time>
      </trkpt>
      <trkpt lat="49.20964" lon="5.48571">
        <ele>244.31</ele>
        <time>2021-07-23T16:44:32Z</time>
      </trkpt>
      <trkpt lat="49.20968" lon="5.48568">
        <ele>244.79</ele>
        <time>2021-07-23T16:44:33Z</time>
      </trkpt>
      <trkpt lat="49.20972" lon="5.48565">
        <ele>244.79</ele>
        <time>2021-07-23T16:44:34Z</time>
      </trkpt>
      <trkpt lat="49.20976" lon="5.48561">
        <ele>244.79</ele>
        <time>2021-07-23T16:44:35Z</time>
      </trkpt>
      <trkpt lat="49.21044" lon="5.48509">
        <ele>245.27</ele>
        <time>2021-07-23T16:44:43Z</time>
      </trkpt>
      <trkpt lat="49.2118" lon="5.48403">
        <ele>245.27</ele>
        <time>2021-07-23T16:44:54Z</time>
      </trkpt>
      <trkpt lat="49.21366" lon="5.48258">
        <ele>254.41</ele>
        <time>2021-07-23T16:45:07Z</time>
      </trkpt>
      <trkpt lat="49.21423" lon="5.48213">
        <ele>258.73</ele>
        <time>2021-07-23T16:45:13Z</time>
      </trkpt>
      <trkpt lat="49.21506" lon="5.48149">
        <ele>262.58</ele>
        <time>2021-07-23T16:45:23Z</time>
      </trkpt>
      <trkpt lat="49.21608" lon="5.48069">
        <ele>264.98</ele>
        <time>2021-07-23T16:45:33Z</time>
      </trkpt>
      <trkpt lat="49.21713" lon="5.47987">
        <ele>265.46</ele>
        <time>2021-07-23T16:45:46Z</time>
      </trkpt>
      <trkpt lat="49.21865" lon="5.47876">
        <ele>262.1</ele>
        <time>2021-07-23T16:46:00Z</time>
      </trkpt>
      <trkpt lat="49.21874" lon="5.47872">
        <ele>261.62</ele>
        <time>2021-07-23T16:46:01Z</time>
      </trkpt>
      <trkpt lat="49.21927" lon="5.47867">
        <ele>257.29</ele>
        <time>2021-07-23T16:46:06Z</time>
      </trkpt>
      <trkpt lat="49.21937" lon="5.47869">
        <ele>257.29</ele>
        <time>2021-07-23T16:46:07Z</time>
      </trkpt>
      <trkpt lat="49.21957" lon="5.47876">
        <ele>255.37</ele>
        <time>2021-07-23T16:46:10Z</time>
      </trkpt>
      <trkpt lat="49.21999" lon="5.479">
        <ele>252.96</ele>
        <time>2021-07-23T16:46:14Z</time>
      </trkpt>
      <trkpt lat="49.22011" lon="5.47904">
        <ele>252.48</ele>
        <time>2021-07-23T16:46:15Z</time>
      </trkpt>
      <trkpt lat="49.22023" lon="5.47907">
        <ele>252.48</ele>
        <time>2021-07-23T16:46:16Z</time>
      </trkpt>
      <trkpt lat="49.22036" lon="5.47907">
        <ele>252.96</ele>
        <time>2021-07-23T16:46:17Z</time>
      </trkpt>
      <trkpt lat="49.22059" lon="5.47907">
        <ele>253.44</ele>
        <time>2021-07-23T16:46:18Z</time>
      </trkpt>
      <trkpt lat="49.22206" lon="5.47877">
        <ele>259.69</ele>
        <time>2021-07-23T16:46:32Z</time>
      </trkpt>
      <trkpt lat="49.22355" lon="5.47842">
        <ele>252.48</ele>
        <time>2021-07-23T16:46:44Z</time>
      </trkpt>
      <trkpt lat="49.22533" lon="5.478">
        <ele>260.17</ele>
        <time>2021-07-23T16:46:58Z</time>
      </trkpt>
      <trkpt lat="49.22712" lon="5.47758">
        <ele>257.77</ele>
        <time>2021-07-23T16:47:12Z</time>
      </trkpt>
      <trkpt lat="49.22923" lon="5.47709">
        <ele>249.6</ele>
        <time>2021-07-23T16:47:26Z</time>
      </trkpt>
      <trkpt lat="49.23145" lon="5.47657">
        <ele>262.1</ele>
        <time>2021-07-23T16:47:41Z</time>
      </trkpt>
      <trkpt lat="49.23294" lon="5.47614">
        <ele>266.9</ele>
        <time>2021-07-23T16:47:53Z</time>
      </trkpt>
      <trkpt lat="49.23376" lon="5.47547">
        <ele>264.02</ele>
        <time>2021-07-23T16:48:02Z</time>
      </trkpt>
      <trkpt lat="49.23474" lon="5.47403">
        <ele>255.37</ele>
        <time>2021-07-23T16:48:12Z</time>
      </trkpt>
      <trkpt lat="49.23518" lon="5.47338">
        <ele>255.37</ele>
        <time>2021-07-23T16:48:16Z</time>
      </trkpt>
      <trkpt lat="49.23525" lon="5.4732">
        <ele>255.85</ele>
        <time>2021-07-23T16:48:17Z</time>
      </trkpt>
      <trkpt lat="49.23528" lon="5.47301">
        <ele>255.85</ele>
        <time>2021-07-23T16:48:18Z</time>
      </trkpt>
      <trkpt lat="49.23532" lon="5.47284">
        <ele>256.81</ele>
        <time>2021-07-23T16:48:19Z</time>
      </trkpt>
      <trkpt lat="49.2353" lon="5.47267">
        <ele>257.29</ele>
        <time>2021-07-23T16:48:20Z</time>
      </trkpt>
      <trkpt lat="49.23529" lon="5.47248">
        <ele>258.73</ele>
        <time>2021-07-23T16:48:21Z</time>
      </trkpt>
      <trkpt lat="49.23526" lon="5.47178">
        <ele>262.1</ele>
        <time>2021-07-23T16:48:25Z</time>
      </trkpt>
      <trkpt lat="49.23527" lon="5.47134">
        <ele>263.54</ele>
        <time>2021-07-23T16:48:31Z</time>
      </trkpt>
      <trkpt lat="49.23531" lon="5.47123">
        <ele>262.58</ele>
        <time>2021-07-23T16:48:36Z</time>
      </trkpt>
      <trkpt lat="49.23534" lon="5.47118">
        <ele>262.58</ele>
        <time>2021-07-23T16:48:37Z</time>
      </trkpt>
      <trkpt lat="49.23537" lon="5.47112">
        <ele>262.58</ele>
        <time>2021-07-23T16:48:38Z</time>
      </trkpt>
      <trkpt lat="49.23593" lon="5.47068">
        <ele>257.29</ele>
        <time>2021-07-23T16:48:46Z</time>
      </trkpt>
      <trkpt lat="49.23601" lon="5.47062">
        <ele>257.29</ele>
        <time>2021-07-23T16:48:47Z</time>
      </trkpt>
      <trkpt lat="49.2361" lon="5.4706">
        <ele>256.33</ele>
        <time>2021-07-23T16:48:48Z</time>
      </trkpt>
      <trkpt lat="49.23618" lon="5.47059">
        <ele>255.85</ele>
        <time>2021-07-23T16:48:49Z</time>
      </trkpt>
      <trkpt lat="49.23626" lon="5.47062">
        <ele>254.89</ele>
        <time>2021-07-23T16:48:50Z</time>
      </trkpt>
      <trkpt lat="49.23632" lon="5.47065">
        <ele>254.89</ele>
        <time>2021-07-23T16:48:51Z</time>
      </trkpt>
      <trkpt lat="49.23638" lon="5.47068">
        <ele>254.41</ele>
        <time>2021-07-23T16:48:52Z</time>
      </trkpt>
      <trkpt lat="49.23643" lon="5.4707">
        <ele>254.41</ele>
        <time>2021-07-23T16:48:53Z</time>
      </trkpt>
      <trkpt lat="49.23647" lon="5.47072">
        <ele>253.93</ele>
        <time>2021-07-23T16:48:54Z</time>
      </trkpt>
      <trkpt lat="49.2365" lon="5.47074">
        <ele>253.44</ele>
        <time>2021-07-23T16:48:55Z</time>
      </trkpt>
      <trkpt lat="49.23655" lon="5.47079">
        <ele>252.48</ele>
        <time>2021-07-23T16:49:01Z</time>
      </trkpt>
      <trkpt lat="49.2366" lon="5.47084">
        <ele>252.48</ele>
        <time>2021-07-23T16:49:02Z</time>
      </trkpt>
      <trkpt lat="49.23661" lon="5.47085">
        <ele>252.48</ele>
        <time>2021-07-23T16:49:03Z</time>
      </trkpt>
      <trkpt lat="49.23666" lon="5.47081">
        <ele>252.48</ele>
        <time>2021-07-23T16:49:04Z</time>
      </trkpt>
      <trkpt lat="49.23667" lon="5.47077">
        <ele>252.48</ele>
        <time>2021-07-23T16:49:05Z</time>
      </trkpt>
      <trkpt lat="49.23668" lon="5.47073">
        <ele>252.96</ele>
        <time>2021-07-23T16:49:06Z</time>
      </trkpt>
      <trkpt lat="49.23669" lon="5.47069">
        <ele>252.96</ele>
        <time>2021-07-23T16:49:07Z</time>
      </trkpt>
      <trkpt lat="49.23673" lon="5.47049">
        <ele>253.93</ele>
        <time>2021-07-23T16:49:18Z</time>
      </trkpt>
      <trkpt lat="49.23689" lon="5.46978">
        <ele>255.37</ele>
        <time>2021-07-23T16:49:30Z</time>
      </trkpt>
      <trkpt lat="49.23692" lon="5.46919">
        <ele>256.81</ele>
        <time>2021-07-23T16:49:40Z</time>
      </trkpt>
      <trkpt lat="49.23682" lon="5.46866">
        <ele>257.29</ele>
        <time>2021-07-23T16:49:54Z</time>
      </trkpt>
      <trkpt lat="49.23674" lon="5.46821">
        <ele>258.25</ele>
        <time>2021-07-23T16:50:05Z</time>
      </trkpt>
      <trkpt lat="49.23673" lon="5.46819">
        <ele>258.73</ele>
        <time>2021-07-23T16:50:21Z</time>
      </trkpt>
      <trkpt lat="49.23673" lon="5.46819">
        <ele>258.73</ele>
        <time>2021-07-23T16:50:47Z</time>
      </trkpt>
      <trkpt lat="49.23673" lon="5.46819">
        <ele>258.73</ele>
        <time>2021-07-23T16:50:48Z</time>
      </trkpt>
      <trkpt lat="49.23673" lon="5.46819">
        <ele>258.73</ele>
        <time>2021-07-23T16:51:02Z</time>
      </trkpt>
      <trkpt lat="49.23673" lon="5.46819">
        <ele>259.21</ele>
        <time>2021-07-23T16:51:16Z</time>
      </trkpt>
      <trkpt lat="49.23679" lon="5.46851">
        <ele>255.85</ele>
        <time>2021-07-23T16:51:33Z</time>
      </trkpt>
      <trkpt lat="49.23687" lon="5.4689">
        <ele>254.89</ele>
        <time>2021-07-23T16:51:43Z</time>
      </trkpt>
      <trkpt lat="49.23691" lon="5.4691">
        <ele>253.93</ele>
        <time>2021-07-23T16:51:46Z</time>
      </trkpt>
      <trkpt lat="49.23692" lon="5.46918">
        <ele>253.93</ele>
        <time>2021-07-23T16:51:47Z</time>
      </trkpt>
      <trkpt lat="49.23694" lon="5.46926">
        <ele>254.89</ele>
        <time>2021-07-23T16:51:48Z</time>
      </trkpt>
      <trkpt lat="49.23695" lon="5.46935">
        <ele>254.89</ele>
        <time>2021-07-23T16:51:49Z</time>
      </trkpt>
      <trkpt lat="49.23696" lon="5.46945">
        <ele>254.89</ele>
        <time>2021-07-23T16:51:50Z</time>
      </trkpt>
      <trkpt lat="49.23695" lon="5.46954">
        <ele>254.89</ele>
        <time>2021-07-23T16:51:51Z</time>
      </trkpt>
      <trkpt lat="49.23693" lon="5.46961">
        <ele>254.89</ele>
        <time>2021-07-23T16:51:52Z</time>
      </trkpt>
      <trkpt lat="49.23691" lon="5.46969">
        <ele>254.89</ele>
        <time>2021-07-23T16:51:53Z</time>
      </trkpt>
      <trkpt lat="49.2369" lon="5.46976">
        <ele>254.89</ele>
        <time>2021-07-23T16:51:54Z</time>
      </trkpt>
      <trkpt lat="49.23688" lon="5.46982">
        <ele>254.89</ele>
        <time>2021-07-23T16:51:55Z</time>
      </trkpt>
      <trkpt lat="49.23679" lon="5.47024">
        <ele>253.93</ele>
        <time>2021-07-23T16:52:07Z</time>
      </trkpt>
      <trkpt lat="49.23669" lon="5.4707">
        <ele>253.44</ele>
        <time>2021-07-23T16:52:20Z</time>
      </trkpt>
      <trkpt lat="49.23666" lon="5.47083">
        <ele>253.44</ele>
        <time>2021-07-23T16:52:24Z</time>
      </trkpt>
      <trkpt lat="49.23662" lon="5.47086">
        <ele>253.44</ele>
        <time>2021-07-23T16:52:25Z</time>
      </trkpt>
      <trkpt lat="49.23661" lon="5.47085">
        <ele>253.44</ele>
        <time>2021-07-23T16:52:26Z</time>
      </trkpt>
      <trkpt lat="49.23659" lon="5.47084">
        <ele>253.44</ele>
        <time>2021-07-23T16:52:27Z</time>
      </trkpt>
      <trkpt lat="49.23657" lon="5.47082">
        <ele>253.44</ele>
        <time>2021-07-23T16:52:28Z</time>
      </trkpt>
      <trkpt lat="49.23654" lon="5.47079">
        <ele>253.93</ele>
        <time>2021-07-23T16:52:29Z</time>
      </trkpt>
      <trkpt lat="49.23651" lon="5.47076">
        <ele>253.93</ele>
        <time>2021-07-23T16:52:30Z</time>
      </trkpt>
      <trkpt lat="49.23647" lon="5.47072">
        <ele>253.93</ele>
        <time>2021-07-23T16:52:31Z</time>
      </trkpt>
      <trkpt lat="49.23642" lon="5.4707">
        <ele>253.93</ele>
        <time>2021-07-23T16:52:32Z</time>
      </trkpt>
      <trkpt lat="49.23636" lon="5.47067">
        <ele>253.93</ele>
        <time>2021-07-23T16:52:33Z</time>
      </trkpt>
      <trkpt lat="49.2363" lon="5.47064">
        <ele>253.44</ele>
        <time>2021-07-23T16:52:34Z</time>
      </trkpt>
      <trkpt lat="49.23617" lon="5.47059">
        <ele>252.96</ele>
        <time>2021-07-23T16:52:35Z</time>
      </trkpt>
      <trkpt lat="49.23617" lon="5.47059">
        <ele>252.48</ele>
        <time>2021-07-23T16:52:36Z</time>
      </trkpt>
      <trkpt lat="49.23601" lon="5.47062">
        <ele>252</ele>
        <time>2021-07-23T16:52:37Z</time>
      </trkpt>
      <trkpt lat="49.23601" lon="5.47062">
        <ele>252</ele>
        <time>2021-07-23T16:52:38Z</time>
      </trkpt>
      <trkpt lat="49.23551" lon="5.47095">
        <ele>256.33</ele>
        <time>2021-07-23T16:52:44Z</time>
      </trkpt>
      <trkpt lat="49.23538" lon="5.47111">
        <ele>256.81</ele>
        <time>2021-07-23T16:52:45Z</time>
      </trkpt>
      <trkpt lat="49.23538" lon="5.47111">
        <ele>257.29</ele>
        <time>2021-07-23T16:52:46Z</time>
      </trkpt>
      <trkpt lat="49.23533" lon="5.47119">
        <ele>257.77</ele>
        <time>2021-07-23T16:52:47Z</time>
      </trkpt>
      <trkpt lat="49.23529" lon="5.47128">
        <ele>257.77</ele>
        <time>2021-07-23T16:52:48Z</time>
      </trkpt>
      <trkpt lat="49.23527" lon="5.47138">
        <ele>257.29</ele>
        <time>2021-07-23T16:52:49Z</time>
      </trkpt>
      <trkpt lat="49.23527" lon="5.47149">
        <ele>257.29</ele>
        <time>2021-07-23T16:52:50Z</time>
      </trkpt>
      <trkpt lat="49.23526" lon="5.4716">
        <ele>257.29</ele>
        <time>2021-07-23T16:52:51Z</time>
      </trkpt>
      <trkpt lat="49.23526" lon="5.47171">
        <ele>256.81</ele>
        <time>2021-07-23T16:52:52Z</time>
      </trkpt>
    </trkseg>
  </trk>
</gpx>